sensor_id;sensor_type;location;lat;lon;timestamp;temperature;humidity
17364;DHT22;8799;43.594;13.526;2023-04-01T00:00:22;19.30;97.30
17364;DHT22;8799;43.594;13.526;2023-04-01T00:02:51;19.30;97.50
17364;DHT22;8799;43.594;13.526;2023-04-01T00:05:18;19.30;97.40
17364;DHT22;8799;43.594;13.526;2023-04-01T00:07:47;19.30;97.30
17364;DHT22;8799;43.594;13.526;2023-04-01T00:10:14;19.30;97.40
17364;DHT22;8799;43.594;13.526;2023-04-01T00:12:44;19.30;97.40
17364;DHT22;8799;43.594;13.526;2023-04-01T00:15:12;19.30;97.40
17364;DHT22;8799;43.594;13.526;2023-04-01T00:17:40;19.30;97.40
17364;DHT22;8799;43.594;13.526;2023-04-01T00:20:08;19.30;97.30
17364;DHT22;8799;43.594;13.526;2023-04-01T00:22:36;19.30;97.40
17364;DHT22;8799;43.594;13.526;2023-04-01T00:25:05;19.30;97.70
17364;DHT22;8799;43.594;13.526;2023-04-01T00:27:33;19.30;97.80
17364;DHT22;8799;43.594;13.526;2023-04-01T00:30:03;19.30;97.80
17364;DHT22;8799;43.594;13.526;2023-04-01T00:32:32;19.30;97.90
17364;DHT22;8799;43.594;13.526;2023-04-01T00:35:00;19.30;98.00
17364;DHT22;8799;43.594;13.526;2023-04-01T00:37:28;19.30;98.00
17364;DHT22;8799;43.594;13.526;2023-04-01T00:39:56;19.30;98.10
17364;DHT22;8799;43.594;13.526;2023-04-01T00:42:24;19.30;98.20
17364;DHT22;8799;43.594;13.526;2023-04-01T00:44:54;19.30;98.20
17364;DHT22;8799;43.594;13.526;2023-04-01T00:47:25;19.30;98.40
17364;DHT22;8799;43.594;13.526;2023-04-01T00:49:54;19.30;98.40
17364;DHT22;8799;43.594;13.526;2023-04-01T00:52:23;19.30;98.50
17364;DHT22;8799;43.594;13.526;2023-04-01T00:54:56;19.30;98.50
17364;DHT22;8799;43.594;13.526;2023-04-01T00:57:31;19.30;98.60
17364;DHT22;8799;43.594;13.526;2023-04-01T00:59:59;19.30;98.60
17364;DHT22;8799;43.594;13.526;2023-04-01T01:02:28;19.30;98.70
17364;DHT22;8799;43.594;13.526;2023-04-01T01:04:57;19.30;98.70
17364;DHT22;8799;43.594;13.526;2023-04-01T01:07:29;19.30;98.70
17364;DHT22;8799;43.594;13.526;2023-04-01T01:10:03;19.30;98.70
17364;DHT22;8799;43.594;13.526;2023-04-01T01:12:37;19.30;98.80
17364;DHT22;8799;43.594;13.526;2023-04-01T01:15:13;19.30;98.80
17364;DHT22;8799;43.594;13.526;2023-04-01T01:18:00;19.30;98.80
17364;DHT22;8799;43.594;13.526;2023-04-01T01:20:48;19.30;98.70
17364;DHT22;8799;43.594;13.526;2023-04-01T01:23:44;19.20;98.70
17364;DHT22;8799;43.594;13.526;2023-04-01T01:26:35;19.20;98.60
17364;DHT22;8799;43.594;13.526;2023-04-01T01:29:10;19.20;98.50
17364;DHT22;8799;43.594;13.526;2023-04-01T01:31:47;19.20;98.50
17364;DHT22;8799;43.594;13.526;2023-04-01T01:34:23;19.20;98.40
17364;DHT22;8799;43.594;13.526;2023-04-01T01:37:01;19.20;98.30
17364;DHT22;8799;43.594;13.526;2023-04-01T01:39:36;19.20;98.20
17364;DHT22;8799;43.594;13.526;2023-04-01T01:42:07;19.20;98.10
17364;DHT22;8799;43.594;13.526;2023-04-01T01:44:37;19.20;98.10
17364;DHT22;8799;43.594;13.526;2023-04-01T01:47:06;19.20;98.00
17364;DHT22;8799;43.594;13.526;2023-04-01T01:49:34;19.10;98.00
17364;DHT22;8799;43.594;13.526;2023-04-01T01:52:05;19.10;98.00
17364;DHT22;8799;43.594;13.526;2023-04-01T01:54:32;19.10;98.00
17364;DHT22;8799;43.594;13.526;2023-04-01T01:57:04;19.10;98.00
17364;DHT22;8799;43.594;13.526;2023-04-01T01:59:34;19.10;98.10
17364;DHT22;8799;43.594;13.526;2023-04-01T02:02:03;19.10;98.10
17364;DHT22;8799;43.594;13.526;2023-04-01T02:04:34;19.10;98.00
17364;DHT22;8799;43.594;13.526;2023-04-01T02:07:05;19.10;98.00
17364;DHT22;8799;43.594;13.526;2023-04-01T02:09:35;19.10;98.10
17364;DHT22;8799;43.594;13.526;2023-04-01T02:12:05;19.10;98.10
17364;DHT22;8799;43.594;13.526;2023-04-01T02:14:39;19.10;98.00
17364;DHT22;8799;43.594;13.526;2023-04-01T02:17:09;19.10;97.90
17364;DHT22;8799;43.594;13.526;2023-04-01T02:19:40;19.10;97.80
17364;DHT22;8799;43.594;13.526;2023-04-01T02:22:13;19.10;97.80
17364;DHT22;8799;43.594;13.526;2023-04-01T02:24:42;19.10;97.70
17364;DHT22;8799;43.594;13.526;2023-04-01T02:27:11;19.10;97.70
17364;DHT22;8799;43.594;13.526;2023-04-01T02:29:40;19.10;97.60
17364;DHT22;8799;43.594;13.526;2023-04-01T02:32:08;19.00;97.50
17364;DHT22;8799;43.594;13.526;2023-04-01T02:34:37;19.10;97.50
17364;DHT22;8799;43.594;13.526;2023-04-01T02:37:05;19.10;97.60
17364;DHT22;8799;43.594;13.526;2023-04-01T02:39:36;19.10;97.70
17364;DHT22;8799;43.594;13.526;2023-04-01T02:42:04;19.10;97.80
17364;DHT22;8799;43.594;13.526;2023-04-01T02:44:32;19.10;97.70
17364;DHT22;8799;43.594;13.526;2023-04-01T02:47:00;19.10;97.70
17364;DHT22;8799;43.594;13.526;2023-04-01T02:49:28;19.10;97.70
17364;DHT22;8799;43.594;13.526;2023-04-01T02:51:56;19.10;97.70
17364;DHT22;8799;43.594;13.526;2023-04-01T02:54:24;19.10;97.60
17364;DHT22;8799;43.594;13.526;2023-04-01T02:56:54;19.10;97.50
17364;DHT22;8799;43.594;13.526;2023-04-01T02:59:21;19.10;97.60
17364;DHT22;8799;43.594;13.526;2023-04-01T03:01:49;19.00;97.40
17364;DHT22;8799;43.594;13.526;2023-04-01T03:04:18;19.00;97.40
17364;DHT22;8799;43.594;13.526;2023-04-01T03:06:45;19.00;97.30
17364;DHT22;8799;43.594;13.526;2023-04-01T03:09:13;19.00;97.30
17364;DHT22;8799;43.594;13.526;2023-04-01T03:11:41;19.00;97.30
17364;DHT22;8799;43.594;13.526;2023-04-01T03:14:11;19.00;97.30
17364;DHT22;8799;43.594;13.526;2023-04-01T03:16:38;19.00;97.20
17364;DHT22;8799;43.594;13.526;2023-04-01T03:19:07;19.00;97.20
17364;DHT22;8799;43.594;13.526;2023-04-01T03:21:36;19.00;97.10
17364;DHT22;8799;43.594;13.526;2023-04-01T03:24:04;19.00;97.10
17364;DHT22;8799;43.594;13.526;2023-04-01T03:26:33;19.00;97.10
17364;DHT22;8799;43.594;13.526;2023-04-01T03:29:01;19.00;97.10
17364;DHT22;8799;43.594;13.526;2023-04-01T03:31:30;19.00;97.10
17364;DHT22;8799;43.594;13.526;2023-04-01T03:33:58;19.00;97.10
17364;DHT22;8799;43.594;13.526;2023-04-01T03:36:25;19.00;97.10
17364;DHT22;8799;43.594;13.526;2023-04-01T03:38:53;19.00;97.10
17364;DHT22;8799;43.594;13.526;2023-04-01T03:41:22;19.00;97.20
17364;DHT22;8799;43.594;13.526;2023-04-01T03:43:50;19.00;97.20
17364;DHT22;8799;43.594;13.526;2023-04-01T03:46:18;19.00;97.20
17364;DHT22;8799;43.594;13.526;2023-04-01T03:48:49;19.00;97.30
17364;DHT22;8799;43.594;13.526;2023-04-01T03:51:16;19.00;97.40
17364;DHT22;8799;43.594;13.526;2023-04-01T03:53:44;19.00;97.30
17364;DHT22;8799;43.594;13.526;2023-04-01T03:56:12;19.00;97.40
17364;DHT22;8799;43.594;13.526;2023-04-01T03:58:40;19.00;97.50
17364;DHT22;8799;43.594;13.526;2023-04-01T04:01:16;18.90;97.60
17364;DHT22;8799;43.594;13.526;2023-04-01T04:03:44;19.00;97.70
17364;DHT22;8799;43.594;13.526;2023-04-01T04:06:14;18.90;97.70
17364;DHT22;8799;43.594;13.526;2023-04-01T04:08:42;19.00;97.80
17364;DHT22;8799;43.594;13.526;2023-04-01T04:11:10;19.00;97.80
17364;DHT22;8799;43.594;13.526;2023-04-01T04:13:38;19.00;97.90
17364;DHT22;8799;43.594;13.526;2023-04-01T04:16:06;19.00;97.90
17364;DHT22;8799;43.594;13.526;2023-04-01T04:18:35;19.00;98.10
17364;DHT22;8799;43.594;13.526;2023-04-01T04:21:03;19.00;98.50
17364;DHT22;8799;43.594;13.526;2023-04-01T04:23:33;18.90;98.70
17364;DHT22;8799;43.594;13.526;2023-04-01T04:26:06;19.00;98.70
17364;DHT22;8799;43.594;13.526;2023-04-01T04:28:34;19.00;98.90
17364;DHT22;8799;43.594;13.526;2023-04-01T04:31:03;19.00;98.90
17364;DHT22;8799;43.594;13.526;2023-04-01T04:33:32;19.00;99.00
17364;DHT22;8799;43.594;13.526;2023-04-01T04:36:00;19.00;99.10
17364;DHT22;8799;43.594;13.526;2023-04-01T04:38:28;19.00;99.10
17364;DHT22;8799;43.594;13.526;2023-04-01T04:40:58;19.00;99.20
17364;DHT22;8799;43.594;13.526;2023-04-01T04:43:26;19.00;99.30
17364;DHT22;8799;43.594;13.526;2023-04-01T04:45:54;18.90;99.30
17364;DHT22;8799;43.594;13.526;2023-04-01T04:48:22;19.00;99.30
17364;DHT22;8799;43.594;13.526;2023-04-01T04:50:50;19.00;99.20
17364;DHT22;8799;43.594;13.526;2023-04-01T04:53:18;19.00;99.20
17364;DHT22;8799;43.594;13.526;2023-04-01T04:55:48;18.90;99.10
17364;DHT22;8799;43.594;13.526;2023-04-01T04:58:18;18.90;99.00
17364;DHT22;8799;43.594;13.526;2023-04-01T05:00:46;18.90;98.90
17364;DHT22;8799;43.594;13.526;2023-04-01T05:03:14;18.90;98.90
17364;DHT22;8799;43.594;13.526;2023-04-01T05:05:49;18.90;98.90
17364;DHT22;8799;43.594;13.526;2023-04-01T05:08:17;18.90;98.90
17364;DHT22;8799;43.594;13.526;2023-04-01T05:10:45;18.90;98.80
17364;DHT22;8799;43.594;13.526;2023-04-01T05:13:12;18.90;98.80
17364;DHT22;8799;43.594;13.526;2023-04-01T05:15:42;18.90;98.80
17364;DHT22;8799;43.594;13.526;2023-04-01T05:18:10;18.90;98.80
17364;DHT22;8799;43.594;13.526;2023-04-01T05:20:38;18.90;98.80
17364;DHT22;8799;43.594;13.526;2023-04-01T05:23:06;18.90;98.70
17364;DHT22;8799;43.594;13.526;2023-04-01T05:25:33;18.80;98.50
17364;DHT22;8799;43.594;13.526;2023-04-01T05:28:01;18.80;98.50
17364;DHT22;8799;43.594;13.526;2023-04-01T05:30:29;18.90;98.60
17364;DHT22;8799;43.594;13.526;2023-04-01T05:32:59;18.90;98.50
17364;DHT22;8799;43.594;13.526;2023-04-01T05:35:28;18.90;98.40
17364;DHT22;8799;43.594;13.526;2023-04-01T05:37:56;18.80;98.20
17364;DHT22;8799;43.594;13.526;2023-04-01T05:40:24;18.80;98.50
17364;DHT22;8799;43.594;13.526;2023-04-01T05:42:53;18.80;98.60
17364;DHT22;8799;43.594;13.526;2023-04-01T05:45:21;18.90;99.00
17364;DHT22;8799;43.594;13.526;2023-04-01T05:47:48;18.80;99.00
17364;DHT22;8799;43.594;13.526;2023-04-01T05:50:17;18.80;99.10
17364;DHT22;8799;43.594;13.526;2023-04-01T05:52:45;18.80;99.10
17364;DHT22;8799;43.594;13.526;2023-04-01T05:55:13;18.80;99.30
17364;DHT22;8799;43.594;13.526;2023-04-01T05:57:41;18.80;99.40
17364;DHT22;8799;43.594;13.526;2023-04-01T06:00:10;18.80;99.50
17364;DHT22;8799;43.594;13.526;2023-04-01T06:02:38;18.80;99.70
17364;DHT22;8799;43.594;13.526;2023-04-01T06:05:24;18.80;99.80
17364;DHT22;8799;43.594;13.526;2023-04-01T06:07:57;18.80;99.90
17364;DHT22;8799;43.594;13.526;2023-04-01T06:10:36;18.80;99.90
17364;DHT22;8799;43.594;13.526;2023-04-01T06:13:07;18.80;99.90
17364;DHT22;8799;43.594;13.526;2023-04-01T06:15:43;18.80;99.90
17364;DHT22;8799;43.594;13.526;2023-04-01T06:21:59;18.80;99.90
17364;DHT22;8799;43.594;13.526;2023-04-01T06:24:49;18.80;99.90
17364;DHT22;8799;43.594;13.526;2023-04-01T06:27:25;18.80;99.90
17364;DHT22;8799;43.594;13.526;2023-04-01T06:30:05;18.80;99.90
17364;DHT22;8799;43.594;13.526;2023-04-01T06:32:56;18.80;99.90
17364;DHT22;8799;43.594;13.526;2023-04-01T06:35:39;18.80;99.90
17364;DHT22;8799;43.594;13.526;2023-04-01T06:38:33;18.80;99.90
17364;DHT22;8799;43.594;13.526;2023-04-01T06:44:25;18.80;99.90
17364;DHT22;8799;43.594;13.526;2023-04-01T06:46:58;18.80;99.20
17364;DHT22;8799;43.594;13.526;2023-04-01T06:49:39;18.70;98.60
17364;DHT22;8799;43.594;13.526;2023-04-01T06:52:15;18.70;98.10
17364;DHT22;8799;43.594;13.526;2023-04-01T06:54:51;18.70;98.20
17364;DHT22;8799;43.594;13.526;2023-04-01T06:57:23;18.70;98.10
17364;DHT22;8799;43.594;13.526;2023-04-01T06:59:55;18.70;98.00
17364;DHT22;8799;43.594;13.526;2023-04-01T07:02:29;18.70;98.00
17364;DHT22;8799;43.594;13.526;2023-04-01T07:05:01;18.70;98.40
17364;DHT22;8799;43.594;13.526;2023-04-01T07:07:33;18.70;98.90
17364;DHT22;8799;43.594;13.526;2023-04-01T07:10:09;18.70;98.90
17364;DHT22;8799;43.594;13.526;2023-04-01T07:12:43;18.70;98.80
17364;DHT22;8799;43.594;13.526;2023-04-01T07:15:17;18.80;98.70
17364;DHT22;8799;43.594;13.526;2023-04-01T07:17:49;18.70;98.70
17364;DHT22;8799;43.594;13.526;2023-04-01T07:20:23;18.70;98.70
17364;DHT22;8799;43.594;13.526;2023-04-01T07:22:57;18.70;98.60
17364;DHT22;8799;43.594;13.526;2023-04-01T07:25:30;18.70;98.70
17364;DHT22;8799;43.594;13.526;2023-04-01T07:28:02;18.70;98.80
17364;DHT22;8799;43.594;13.526;2023-04-01T07:30:39;18.70;98.80
17364;DHT22;8799;43.594;13.526;2023-04-01T07:33:12;18.70;98.80
17364;DHT22;8799;43.594;13.526;2023-04-01T07:35:45;18.70;98.90
17364;DHT22;8799;43.594;13.526;2023-04-01T07:38:25;18.70;98.80
17364;DHT22;8799;43.594;13.526;2023-04-01T07:41:03;18.70;98.70
17364;DHT22;8799;43.594;13.526;2023-04-01T07:43:49;18.70;98.70
17364;DHT22;8799;43.594;13.526;2023-04-01T07:46:28;18.70;98.70
17364;DHT22;8799;43.594;13.526;2023-04-01T07:49:03;18.70;98.60
17364;DHT22;8799;43.594;13.526;2023-04-01T07:51:40;18.70;98.50
17364;DHT22;8799;43.594;13.526;2023-04-01T07:54:16;18.70;98.50
17364;DHT22;8799;43.594;13.526;2023-04-01T07:56:50;18.70;98.40
17364;DHT22;8799;43.594;13.526;2023-04-01T07:59:24;18.70;98.30
17364;DHT22;8799;43.594;13.526;2023-04-01T08:02:04;18.70;98.20
17364;DHT22;8799;43.594;13.526;2023-04-01T08:04:52;18.70;98.10
17364;DHT22;8799;43.594;13.526;2023-04-01T08:07:25;18.70;98.00
17364;DHT22;8799;43.594;13.526;2023-04-01T08:09:58;18.80;97.90
17364;DHT22;8799;43.594;13.526;2023-04-01T08:12:37;18.80;97.80
17364;DHT22;8799;43.594;13.526;2023-04-01T08:15:17;18.80;97.80
17364;DHT22;8799;43.594;13.526;2023-04-01T08:17:57;18.80;97.70
17364;DHT22;8799;43.594;13.526;2023-04-01T08:20:32;18.80;97.60
17364;DHT22;8799;43.594;13.526;2023-04-01T08:23:07;18.80;97.50
17364;DHT22;8799;43.594;13.526;2023-04-01T08:25:44;18.80;97.50
17364;DHT22;8799;43.594;13.526;2023-04-01T08:28:19;18.80;97.40
17364;DHT22;8799;43.594;13.526;2023-04-01T08:30:52;18.80;97.40
17364;DHT22;8799;43.594;13.526;2023-04-01T08:33:24;18.80;97.40
17364;DHT22;8799;43.594;13.526;2023-04-01T08:35:55;18.80;97.30
17364;DHT22;8799;43.594;13.526;2023-04-01T08:38:28;18.80;97.30
17364;DHT22;8799;43.594;13.526;2023-04-01T08:41:07;18.80;97.20
17364;DHT22;8799;43.594;13.526;2023-04-01T08:47:13;18.80;97.10
17364;DHT22;8799;43.594;13.526;2023-04-01T08:50:12;18.80;97.00
17364;DHT22;8799;43.594;13.526;2023-04-01T08:52:57;18.80;97.00
17364;DHT22;8799;43.594;13.526;2023-04-01T08:55:31;18.90;97.00
17364;DHT22;8799;43.594;13.526;2023-04-01T08:58:24;18.80;96.90
17364;DHT22;8799;43.594;13.526;2023-04-01T09:01:00;18.90;96.90
17364;DHT22;8799;43.594;13.526;2023-04-01T09:04:05;18.90;96.90
17364;DHT22;8799;43.594;13.526;2023-04-01T09:06:51;18.90;96.80
17364;DHT22;8799;43.594;13.526;2023-04-01T09:09:56;18.90;96.70
17364;DHT22;8799;43.594;13.526;2023-04-01T09:12:39;18.90;96.70
17364;DHT22;8799;43.594;13.526;2023-04-01T09:15:26;18.90;96.60
17364;DHT22;8799;43.594;13.526;2023-04-01T09:18:24;18.90;96.60
17364;DHT22;8799;43.594;13.526;2023-04-01T09:21:23;18.90;96.50
17364;DHT22;8799;43.594;13.526;2023-04-01T09:27:03;18.90;96.30
17364;DHT22;8799;43.594;13.526;2023-04-01T09:29:45;18.90;96.40
17364;DHT22;8799;43.594;13.526;2023-04-01T09:32:33;18.90;96.30
17364;DHT22;8799;43.594;13.526;2023-04-01T09:35:21;18.90;96.30
17364;DHT22;8799;43.594;13.526;2023-04-01T09:38:03;18.90;96.30
17364;DHT22;8799;43.594;13.526;2023-04-01T09:40:46;18.90;96.20
17364;DHT22;8799;43.594;13.526;2023-04-01T09:43:43;18.90;96.20
17364;DHT22;8799;43.594;13.526;2023-04-01T09:46:18;18.90;96.20
17364;DHT22;8799;43.594;13.526;2023-04-01T09:49:28;18.90;96.10
17364;DHT22;8799;43.594;13.526;2023-04-01T09:52:09;18.90;96.10
17364;DHT22;8799;43.594;13.526;2023-04-01T09:54:53;18.90;96.10
17364;DHT22;8799;43.594;13.526;2023-04-01T10:04:00;18.90;96.00
17364;DHT22;8799;43.594;13.526;2023-04-01T10:06:58;18.90;96.00
17364;DHT22;8799;43.594;13.526;2023-04-01T10:19:12;18.90;96.00
17364;DHT22;8799;43.594;13.526;2023-04-01T10:22:05;18.90;96.00
17364;DHT22;8799;43.594;13.526;2023-04-01T10:25:05;18.90;95.90
17364;DHT22;8799;43.594;13.526;2023-04-01T10:31:04;18.90;95.80
17364;DHT22;8799;43.594;13.526;2023-04-01T10:36:58;18.90;95.80
17364;DHT22;8799;43.594;13.526;2023-04-01T10:39:38;18.90;95.80
17364;DHT22;8799;43.594;13.526;2023-04-01T10:45:58;18.90;95.80
17364;DHT22;8799;43.594;13.526;2023-04-01T10:51:58;18.90;95.80
17364;DHT22;8799;43.594;13.526;2023-04-01T10:54:47;18.90;95.70
17364;DHT22;8799;43.594;13.526;2023-04-01T11:00:54;17.60;95.00
17364;DHT22;8799;43.594;13.526;2023-04-01T11:07:23;18.80;95.60
17364;DHT22;8799;43.594;13.526;2023-04-01T11:13:44;18.80;95.60
17364;DHT22;8799;43.594;13.526;2023-04-01T11:19:52;18.80;95.50
17364;DHT22;8799;43.594;13.526;2023-04-01T11:22:50;18.80;95.50
17364;DHT22;8799;43.594;13.526;2023-04-01T11:25:36;18.80;95.40
17364;DHT22;8799;43.594;13.526;2023-04-01T11:28:35;18.80;95.40
17364;DHT22;8799;43.594;13.526;2023-04-01T11:34:27;18.80;95.40
17364;DHT22;8799;43.594;13.526;2023-04-01T11:37:08;20.40;96.20
17364;DHT22;8799;43.594;13.526;2023-04-01T11:39:46;18.80;95.40
17364;DHT22;8799;43.594;13.526;2023-04-01T11:42:24;18.80;95.30
17364;DHT22;8799;43.594;13.526;2023-04-01T11:45:01;18.80;95.30
17364;DHT22;8799;43.594;13.526;2023-04-01T11:47:52;18.80;95.30
17364;DHT22;8799;43.594;13.526;2023-04-01T11:50:29;18.80;95.30
17364;DHT22;8799;43.594;13.526;2023-04-01T11:53:19;18.80;95.30
17364;DHT22;8799;43.594;13.526;2023-04-01T11:56:07;18.80;95.30
17364;DHT22;8799;43.594;13.526;2023-04-01T11:59:06;18.80;95.20
17364;DHT22;8799;43.594;13.526;2023-04-01T12:01:48;18.80;95.30
17364;DHT22;8799;43.594;13.526;2023-04-01T12:07:32;18.80;95.20
17364;DHT22;8799;43.594;13.526;2023-04-01T12:10:12;18.80;95.10
17364;DHT22;8799;43.594;13.526;2023-04-01T12:12:52;18.80;95.20
17364;DHT22;8799;43.594;13.526;2023-04-01T12:15:29;18.80;95.20
17364;DHT22;8799;43.594;13.526;2023-04-01T12:18:06;18.80;95.10
17364;DHT22;8799;43.594;13.526;2023-04-01T12:20:48;18.80;95.20
17364;DHT22;8799;43.594;13.526;2023-04-01T12:23:40;18.80;95.10
17364;DHT22;8799;43.594;13.526;2023-04-01T12:26:26;18.80;95.10
17364;DHT22;8799;43.594;13.526;2023-04-01T12:29:11;18.80;95.20
17364;DHT22;8799;43.594;13.526;2023-04-01T12:31:51;18.80;95.10
17364;DHT22;8799;43.594;13.526;2023-04-01T12:37:37;18.80;95.10
17364;DHT22;8799;43.594;13.526;2023-04-01T12:40:25;18.80;95.10
17364;DHT22;8799;43.594;13.526;2023-04-01T12:43:17;18.80;95.10
17364;DHT22;8799;43.594;13.526;2023-04-01T12:45:55;18.80;95.10
17364;DHT22;8799;43.594;13.526;2023-04-01T12:48:43;18.80;95.10
17364;DHT22;8799;43.594;13.526;2023-04-01T12:51:34;18.80;95.10
17364;DHT22;8799;43.594;13.526;2023-04-01T12:54:26;18.80;95.00
17364;DHT22;8799;43.594;13.526;2023-04-01T12:57:06;18.70;95.00
17364;DHT22;8799;43.594;13.526;2023-04-01T12:59:51;18.70;95.00
17364;DHT22;8799;43.594;13.526;2023-04-01T13:02:31;18.70;95.00
17364;DHT22;8799;43.594;13.526;2023-04-01T13:05:19;18.70;95.00
17364;DHT22;8799;43.594;13.526;2023-04-01T13:07:58;18.70;95.00
17364;DHT22;8799;43.594;13.526;2023-04-01T13:10:42;18.70;95.10
17364;DHT22;8799;43.594;13.526;2023-04-01T13:13:29;18.70;95.10
17364;DHT22;8799;43.594;13.526;2023-04-01T13:16:07;18.70;95.10
17364;DHT22;8799;43.594;13.526;2023-04-01T13:18:50;18.70;95.10
17364;DHT22;8799;43.594;13.526;2023-04-01T13:21:28;18.70;95.10
17364;DHT22;8799;43.594;13.526;2023-04-01T13:24:03;18.70;95.20
17364;DHT22;8799;43.594;13.526;2023-04-01T13:26:37;18.70;95.10
17364;DHT22;8799;43.594;13.526;2023-04-01T13:29:12;18.70;95.10
17364;DHT22;8799;43.594;13.526;2023-04-01T13:32:00;18.70;95.20
17364;DHT22;8799;43.594;13.526;2023-04-01T13:34:44;18.70;95.20
17364;DHT22;8799;43.594;13.526;2023-04-01T13:37:27;18.60;95.10
17364;DHT22;8799;43.594;13.526;2023-04-01T13:40:11;18.60;95.10
17364;DHT22;8799;43.594;13.526;2023-04-01T13:42:47;18.60;95.10
17364;DHT22;8799;43.594;13.526;2023-04-01T13:45:19;18.70;95.20
17364;DHT22;8799;43.594;13.526;2023-04-01T13:48:18;18.60;95.10
17364;DHT22;8799;43.594;13.526;2023-04-01T13:51:07;18.60;95.20
17364;DHT22;8799;43.594;13.526;2023-04-01T13:53:52;18.60;95.10
17364;DHT22;8799;43.594;13.526;2023-04-01T13:56:33;18.60;95.10
17364;DHT22;8799;43.594;13.526;2023-04-01T13:59:25;18.60;95.00
17364;DHT22;8799;43.594;13.526;2023-04-01T14:02:04;18.60;94.80
17364;DHT22;8799;43.594;13.526;2023-04-01T14:04:53;18.60;94.70
17364;DHT22;8799;43.594;13.526;2023-04-01T14:07:39;18.60;94.50
17364;DHT22;8799;43.594;13.526;2023-04-01T14:10:19;18.60;94.40
17364;DHT22;8799;43.594;13.526;2023-04-01T14:12:57;18.60;94.40
17364;DHT22;8799;43.594;13.526;2023-04-01T14:15:42;18.50;94.30
17364;DHT22;8799;43.594;13.526;2023-04-01T14:18:29;18.50;94.20
17364;DHT22;8799;43.594;13.526;2023-04-01T14:24:01;18.50;93.90
17364;DHT22;8799;43.594;13.526;2023-04-01T14:30:23;18.50;93.80
17364;DHT22;8799;43.594;13.526;2023-04-01T14:33:21;18.50;93.80
17364;DHT22;8799;43.594;13.526;2023-04-01T14:36:02;18.50;93.70
17364;DHT22;8799;43.594;13.526;2023-04-01T14:38:42;18.50;93.70
17364;DHT22;8799;43.594;13.526;2023-04-01T14:41:25;18.50;93.80
17364;DHT22;8799;43.594;13.526;2023-04-01T14:44:11;18.50;93.80
17364;DHT22;8799;43.594;13.526;2023-04-01T14:49:41;18.50;93.90
17364;DHT22;8799;43.594;13.526;2023-04-01T14:52:13;18.60;94.00
17364;DHT22;8799;43.594;13.526;2023-04-01T14:54:44;18.60;94.00
17364;DHT22;8799;43.594;13.526;2023-04-01T14:57:20;18.60;94.00
17364;DHT22;8799;43.594;13.526;2023-04-01T14:59:53;18.60;94.10
17364;DHT22;8799;43.594;13.526;2023-04-01T15:02:37;18.60;94.10
17364;DHT22;8799;43.594;13.526;2023-04-01T15:05:15;18.60;94.10
17364;DHT22;8799;43.594;13.526;2023-04-01T15:08:18;18.70;94.20
17364;DHT22;8799;43.594;13.526;2023-04-01T15:11:18;18.70;94.30
17364;DHT22;8799;43.594;13.526;2023-04-01T15:14:04;18.70;94.30
17364;DHT22;8799;43.594;13.526;2023-04-01T15:16:41;18.70;94.30
17364;DHT22;8799;43.594;13.526;2023-04-01T15:19:20;18.70;94.40
17364;DHT22;8799;43.594;13.526;2023-04-01T15:22:04;18.80;94.40
17364;DHT22;8799;43.594;13.526;2023-04-01T15:24:44;18.80;94.30
17364;DHT22;8799;43.594;13.526;2023-04-01T15:27:29;18.80;94.40
17364;DHT22;8799;43.594;13.526;2023-04-01T15:30:30;18.80;94.30
17364;DHT22;8799;43.594;13.526;2023-04-01T15:33:12;18.80;94.20
17364;DHT22;8799;43.594;13.526;2023-04-01T15:35:48;18.80;94.20
17364;DHT22;8799;43.594;13.526;2023-04-01T15:38:25;18.80;94.20
17364;DHT22;8799;43.594;13.526;2023-04-01T15:41:00;18.80;94.20
17364;DHT22;8799;43.594;13.526;2023-04-01T15:43:38;18.90;94.30
17364;DHT22;8799;43.594;13.526;2023-04-01T15:46:28;18.90;94.30
17364;DHT22;8799;43.594;13.526;2023-04-01T15:49:03;18.90;94.20
17364;DHT22;8799;43.594;13.526;2023-04-01T15:51:48;18.90;94.10
17364;DHT22;8799;43.594;13.526;2023-04-01T15:57:20;18.90;94.00
17364;DHT22;8799;43.594;13.526;2023-04-01T16:00:19;19.00;93.50
17364;DHT22;8799;43.594;13.526;2023-04-01T16:02:51;19.00;93.40
17364;DHT22;8799;43.594;13.526;2023-04-01T16:05:34;19.00;93.20
17364;DHT22;8799;43.594;13.526;2023-04-01T16:08:37;19.00;93.10
17364;DHT22;8799;43.594;13.526;2023-04-01T16:11:18;19.00;93.00
17364;DHT22;8799;43.594;13.526;2023-04-01T16:13:58;19.00;92.60
17364;DHT22;8799;43.594;13.526;2023-04-01T16:16:39;19.00;92.30
17364;DHT22;8799;43.594;13.526;2023-04-01T16:19:23;19.10;92.30
17364;DHT22;8799;43.594;13.526;2023-04-01T16:22:00;19.10;92.10
17364;DHT22;8799;43.594;13.526;2023-04-01T16:24:34;19.10;92.10
17364;DHT22;8799;43.594;13.526;2023-04-01T16:27:06;19.10;91.90
17364;DHT22;8799;43.594;13.526;2023-04-01T16:29:41;19.10;91.70
17364;DHT22;8799;43.594;13.526;2023-04-01T16:32:20;19.10;91.60
17364;DHT22;8799;43.594;13.526;2023-04-01T16:35:03;19.10;91.60
17364;DHT22;8799;43.594;13.526;2023-04-01T16:37:36;19.10;91.70
17364;DHT22;8799;43.594;13.526;2023-04-01T16:40:13;19.10;91.80
17364;DHT22;8799;43.594;13.526;2023-04-01T16:42:48;19.10;91.90
17364;DHT22;8799;43.594;13.526;2023-04-01T16:45:26;19.10;92.00
17364;DHT22;8799;43.594;13.526;2023-04-01T16:48:05;19.20;92.10
17364;DHT22;8799;43.594;13.526;2023-04-01T16:50:49;19.20;92.10
17364;DHT22;8799;43.594;13.526;2023-04-01T16:53:30;19.20;92.20
17364;DHT22;8799;43.594;13.526;2023-04-01T16:56:07;19.20;92.20
17364;DHT22;8799;43.594;13.526;2023-04-01T16:58:38;19.20;92.20
17364;DHT22;8799;43.594;13.526;2023-04-01T17:01:12;19.20;92.20
17364;DHT22;8799;43.594;13.526;2023-04-01T17:03:43;19.20;92.30
17364;DHT22;8799;43.594;13.526;2023-04-01T17:06:30;19.20;92.30
17364;DHT22;8799;43.594;13.526;2023-04-01T17:09:20;19.20;92.40
17364;DHT22;8799;43.594;13.526;2023-04-01T17:11:57;19.30;92.70
17364;DHT22;8799;43.594;13.526;2023-04-01T17:14:32;19.30;92.90
17364;DHT22;8799;43.594;13.526;2023-04-01T17:17:25;19.30;92.90
17364;DHT22;8799;43.594;13.526;2023-04-01T17:20:06;19.30;93.00
17364;DHT22;8799;43.594;13.526;2023-04-01T17:22:46;19.30;93.00
17364;DHT22;8799;43.594;13.526;2023-04-01T17:25:25;19.30;93.20
17364;DHT22;8799;43.594;13.526;2023-04-01T17:27:59;19.30;93.40
17364;DHT22;8799;43.594;13.526;2023-04-01T17:30:35;19.30;93.40
17364;DHT22;8799;43.594;13.526;2023-04-01T17:33:32;19.30;93.40
17364;DHT22;8799;43.594;13.526;2023-04-01T17:36:09;19.30;93.40
17364;DHT22;8799;43.594;13.526;2023-04-01T17:38:50;19.30;93.50
17364;DHT22;8799;43.594;13.526;2023-04-01T17:41:31;19.30;93.50
17364;DHT22;8799;43.594;13.526;2023-04-01T17:44:16;19.30;93.50
17364;DHT22;8799;43.594;13.526;2023-04-01T17:47:01;19.30;93.60
17364;DHT22;8799;43.594;13.526;2023-04-01T17:49:38;19.40;93.60